Time;durP1;ratioP1;P1;durP2;ratioP2;P2;SDS_P1;SDS_P2;PMS_P1;PMS_P2;Temp;Humidity;BMP_temperature;BMP_pressure;BME280_temperature;BME280_humidity;BME280_pressure;Samples;Min_cycle;Max_cycle;Signal;HPM_P1;HPM_P2
2022/07/20 00:01:10;;;;;;;;;9.60;9.20;;;;;23.30;32.50;99705.56;5097293;28;9542;-60
2022/07/20 00:03:38;;;;;;;;;16.00;13.40;;;;;23.24;32.05;99707.22;5103565;28;8823;-60
2022/07/20 00:06:05;;;;;;;;;12.80;12.20;;;;;23.19;32.60;99706.16;5117103;28;8819;-62
2022/07/20 00:11:23;;;;;;;;;13.20;13.20;;;;;23.12;32.45;99708.00;5119126;28;8835;-62
2022/07/20 00:13:51;;;;;;;;;14.00;13.00;;;;;23.10;32.99;99705.53;5119068;28;8920;-62
2022/07/20 00:16:19;;;;;;;;;13.80;13.80;;;;;23.07;32.78;99702.38;5119176;28;8839;-62
2022/07/20 00:18:47;;;;;;;;;13.40;12.20;;;;;23.04;32.90;99702.78;5118903;28;8828;-62
2022/07/20 00:21:16;;;;;;;;;12.60;12.40;;;;;23.02;32.61;99699.44;5118809;28;8970;-62
2022/07/20 00:23:44;;;;;;;;;12.80;12.60;;;;;23.00;32.69;99696.09;5118512;28;8850;-60
2022/07/20 00:26:12;;;;;;;;;12.40;12.40;;;;;22.99;32.97;99702.56;5118121;28;8983;-62
2022/07/20 00:28:40;;;;;;;;;14.80;14.80;;;;;22.95;32.53;99704.03;5106985;28;8945;-61
2022/07/20 00:31:07;;;;;;;;;13.00;13.00;;;;;22.93;32.68;99696.06;5098210;28;8926;-60
2022/07/20 00:33:35;;;;;;;;;13.00;13.00;;;;;22.89;33.35;99693.97;5098243;28;8856;-60
2022/07/20 00:36:03;;;;;;;;;12.80;12.40;;;;;22.85;33.24;99695.44;5098133;28;8845;-61
2022/07/20 00:38:31;;;;;;;;;14.60;12.60;;;;;22.82;33.29;99690.41;5098070;28;8842;-60
2022/07/20 00:40:59;;;;;;;;;16.80;15.40;;;;;22.77;33.40;99688.31;5097736;28;8837;-61
2022/07/20 00:43:27;;;;;;;;;14.60;14.60;;;;;22.73;33.11;99694.38;5097876;28;8863;-61
2022/07/20 00:45:55;;;;;;;;;10.80;10.80;;;;;22.67;33.66;99690.59;5098199;28;8849;-60
2022/07/20 00:48:23;;;;;;;;;14.40;13.60;;;;;22.62;33.59;99694.97;5098370;28;8846;-62
2022/07/20 00:50:51;;;;;;;;;16.20;14.80;;;;;22.58;33.71;99688.25;5098100;28;8830;-62
2022/07/20 00:53:19;;;;;;;;;16.00;16.00;;;;;22.56;33.80;99690.34;5097996;28;8845;-60
2022/07/20 00:55:52;;;;;;;;;18.20;14.20;;;;;22.54;33.45;99685.13;5098094;28;8992;-59
2022/07/20 00:58:20;;;;;;;;;15.00;15.00;;;;;22.54;33.51;99685.13;5104901;28;8828;-60
2022/07/20 01:00:48;;;;;;;;;13.00;13.00;;;;;22.54;33.71;99678.88;5118042;28;8869;-59
2022/07/20 01:03:16;;;;;;;;;15.60;15.40;;;;;22.52;33.41;99670.06;5118033;28;8970;-61
2022/07/20 01:05:44;;;;;;;;;15.40;14.00;;;;;22.52;33.49;99670.06;5118306;28;8816;-60
2022/07/20 01:08:12;;;;;;;;;13.20;13.00;;;;;22.51;33.43;99669.25;5117797;28;8828;-60
2022/07/20 01:10:40;;;;;;;;;13.60;13.00;;;;;22.51;33.86;99669.25;5117966;28;8827;-61
2022/07/20 01:13:07;;;;;;;;;16.00;16.00;;;;;22.49;33.56;99671.34;5117744;28;8831;-61
2022/07/20 01:15:35;;;;;;;;;10.40;10.00;;;;;22.47;33.64;99669.88;5117615;28;8946;-62
2022/07/20 01:18:03;;;;;;;;;14.80;14.80;;;;;22.45;33.89;99667.34;5117707;28;8958;-62
2022/07/20 01:20:31;;;;;;;;;14.60;14.20;;;;;22.45;33.81;99666.50;5117580;28;8844;-61
2022/07/20 01:22:59;;;;;;;;;13.20;12.40;;;;;22.41;33.67;99660.69;5117495;28;8835;-62
2022/07/20 01:25:27;;;;;;;;;13.00;12.00;;;;;22.38;34.16;99652.88;5117874;28;8847;-60
2022/07/20 01:27:55;;;;;;;;;15.80;15.60;;;;;22.35;34.28;99660.59;5115488;28;8822;-62
2022/07/20 01:30:22;;;;;;;;;15.40;14.40;;;;;22.31;33.95;99653.94;5122883;27;9020;-61
2022/07/20 01:32:50;;;;;;;;;16.80;15.60;;;;;22.29;34.23;99661.41;5137994;27;8829;-62
2022/07/20 01:35:18;;;;;;;;;15.00;13.40;;;;;22.27;34.29;99652.66;5137630;27;8834;-60
2022/07/20 01:37:46;;;;;;;;;12.20;11.60;;;;;22.26;34.01;99654.53;5138095;27;8944;-61
2022/07/20 01:40:14;;;;;;;;;12.00;11.40;;;;;22.22;34.29;99664.13;5137452;27;8869;-61
2022/07/20 01:42:42;;;;;;;;;11.80;10.60;;;;;22.17;34.11;99655.72;5137704;27;8818;-61
2022/07/20 01:45:10;;;;;;;;;9.60;8.20;;;;;22.16;33.98;99655.97;5137917;27;8821;-63
2022/07/20 01:47:38;;;;;;;;;13.00;13.00;;;;;22.13;34.53;99656.34;5137882;27;8813;-60
2022/07/20 01:50:06;;;;;;;;;13.80;13.80;;;;;22.09;34.06;99641.53;5137468;27;8972;-61
2022/07/20 01:52:33;;;;;;;;;13.20;12.00;;;;;22.06;34.75;99648.19;5137384;27;8944;-62
2022/07/20 01:55:01;;;;;;;;;12.60;11.80;;;;;22.03;34.81;99640.44;5137412;27;8822;-62
2022/07/20 01:57:29;;;;;;;;;9.00;9.00;;;;;22.02;34.48;99646.09;5137467;27;8955;-62
2022/07/20 01:59:57;;;;;;;;;14.80;14.00;;;;;22.01;34.61;99644.41;5122241;27;8868;-60
2022/07/20 02:02:25;;;;;;;;;12.20;11.60;;;;;22.00;34.46;99640.03;5116659;28;8830;-60
2022/07/20 02:04:53;;;;;;;;;15.20;15.00;;;;;21.97;34.97;99635.00;5116745;28;8835;-61
2022/07/20 02:07:21;;;;;;;;;15.00;13.00;;;;;21.96;34.88;99642.31;5117187;28;8867;-61
2022/07/20 02:09:49;;;;;;;;;11.20;11.00;;;;;21.96;35.08;99638.75;5115921;28;8842;-61
2022/07/20 02:12:18;;;;;;;;;15.00;13.20;;;;;21.95;34.48;99637.09;5117078;28;8839;-61
2022/07/20 02:14:46;;;;;;;;;12.00;12.00;;;;;21.94;34.56;99636.22;5117485;27;8961;-61
2022/07/20 02:17:14;;;;;;;;;10.20;9.00;;;;;21.93;34.46;99628.31;5116681;28;8824;-61
2022/07/20 02:19:41;;;;;;;;;12.20;11.40;;;;;21.90;34.76;99634.13;5116478;28;8974;-60
2022/07/20 02:22:11;;;;;;;;;5.80;5.20;;;;;21.89;34.46;99635.16;5116592;28;8971;-60
2022/07/20 02:24:39;;;;;;;;;11.00;11.00;;;;;21.86;35.03;99630.97;5135848;27;9456;-61
2022/07/20 02:27:07;;;;;;;;;12.40;12.00;;;;;21.83;34.70;99635.97;5137254;27;8843;-63
2022/07/20 02:29:35;;;;;;;;;12.60;12.60;;;;;21.80;34.81;99641.81;5137137;27;8857;-61
2022/07/20 02:32:03;;;;;;;;;17.60;13.80;;;;;21.76;34.73;99635.94;5137266;27;9617;-61
2022/07/20 02:34:31;;;;;;;;;13.20;12.20;;;;;21.76;35.35;99637.81;5137033;27;8833;-61
2022/07/20 02:37:01;;;;;;;;;12.40;12.40;;;;;21.72;35.65;99629.25;5137076;27;8925;-62
2022/07/20 02:39:29;;;;;;;;;14.20;13.40;;;;;21.71;35.34;99632.16;5136785;27;8821;-61
2022/07/20 02:41:56;;;;;;;;;12.60;12.60;;;;;21.68;35.57;99632.56;5136942;27;8867;-62
2022/07/20 02:44:24;;;;;;;;;14.00;13.60;;;;;21.65;35.27;99628.34;5136582;27;8859;-60
2022/07/20 02:46:52;;;;;;;;;13.00;12.80;;;;;21.63;35.51;99635.00;5136562;27;8818;-60
2022/07/20 02:49:20;;;;;;;;;15.00;15.00;;;;;21.61;35.79;99631.63;5136889;27;8960;-61
2022/07/20 02:51:48;;;;;;;;;14.60;14.20;;;;;21.59;35.20;99629.16;5137089;27;8914;-62
2022/07/20 02:54:16;;;;;;;;;13.80;12.00;;;;;21.54;35.85;99626.19;5119996;28;8896;-62
2022/07/20 02:56:43;;;;;;;;;12.60;12.40;;;;;21.52;35.97;99622.00;5116171;28;8861;-62
2022/07/20 02:59:11;;;;;;;;;15.40;14.60;;;;;21.50;36.05;99613.25;5115874;28;8827;-60
2022/07/20 03:01:39;;;;;;;;;15.20;15.00;;;;;21.48;35.78;99618.84;5116090;28;8859;-62
2022/07/20 03:04:07;;;;;;;;;14.20;12.00;;;;;21.46;36.05;99611.94;5116034;28;8841;-60
2022/07/20 03:06:36;;;;;;;;;12.60;12.00;;;;;21.43;36.34;99609.66;5116122;28;8834;-62
2022/07/20 03:09:04;;;;;;;;;14.40;14.00;;;;;21.42;36.28;99618.81;5116240;28;8816;-61
2022/07/20 03:11:31;;;;;;;;;7.40;7.40;;;;;21.40;36.29;99613.59;5116341;28;8835;-61
2022/07/20 03:13:59;;;;;;;;;16.60;15.20;;;;;21.39;36.19;99613.78;5116005;28;8845;-61
2022/07/20 03:16:27;;;;;;;;;17.20;16.00;;;;;21.39;36.62;99617.34;5115613;28;8912;-62
2022/07/20 03:18:55;;;;;;;;;11.40;11.40;;;;;21.38;36.08;99615.69;5115914;28;8820;-63
2022/07/20 03:21:25;;;;;;;;;11.00;11.00;;;;;21.38;36.42;99615.69;5118011;28;8843;-62
2022/07/20 03:23:55;;;;;;;;;14.60;14.60;;;;;21.41;36.52;99619.88;5120443;27;8928;-60
2022/07/20 03:26:22;;;;;;;;;13.40;12.00;;;;;21.41;36.12;99617.97;5120074;28;8836;-61
2022/07/20 03:28:50;;;;;;;;;15.00;12.80;;;;;21.42;36.34;99621.53;5120019;28;8828;-62
2022/07/20 03:31:19;;;;;;;;;13.60;12.00;;;;;21.38;36.42;99615.69;5104630;28;9864;-62
2022/07/20 03:33:52;;;;;;;;;13.20;12.00;;;;;21.39;36.22;99624.63;5099156;28;8837;-61
2022/07/20 03:36:20;;;;;;;;;9.80;9.20;;;;;21.39;36.11;99617.34;5099819;28;8860;-62
2022/07/20 03:38:50;;;;;;;;;15.20;15.00;;;;;21.39;36.47;99624.63;5099000;28;8838;-60
2022/07/20 03:41:18;;;;;;;;;13.40;12.00;;;;;21.36;36.71;99625.88;5098619;28;8850;-60
2022/07/20 03:43:46;;;;;;;;;12.00;11.00;;;;;21.37;36.36;99630.25;5098699;28;8956;-62
2022/07/20 03:46:17;;;;;;;;;16.40;11.80;;;;;21.39;36.43;99625.47;5099132;28;8848;-61
2022/07/20 03:48:45;;;;;;;;;16.00;14.40;;;;;21.42;36.80;99630.47;5098880;28;8856;-61
2022/07/20 03:51:14;;;;;;;;;15.00;14.60;;;;;21.47;36.42;99629.88;5099487;28;8907;-62
2022/07/20 03:53:42;;;;;;;;;8.20;7.60;;;;;21.56;36.70;99626.81;5112334;28;8897;-62
2022/07/20 03:56:12;;;;;;;;;14.40;13.80;;;;;21.65;36.38;99627.50;5119389;28;8824;-62
2022/07/20 03:58:40;;;;;;;;;12.80;12.20;;;;;21.74;36.31;99629.91;5118800;28;9628;-61
2022/07/20 04:01:07;;;;;;;;;12.80;12.00;;;;;21.77;35.82;99634.91;5118809;28;8860;-62
2022/07/20 04:03:35;;;;;;;;;12.80;12.80;;;;;21.82;36.35;99634.28;5119272;28;8835;-60
2022/07/20 04:06:03;;;;;;;;;12.00;11.60;;;;;21.88;36.33;99645.16;5118991;28;8840;-60
2022/07/20 04:08:31;;;;;;;;;12.80;12.80;;;;;21.93;36.29;99639.97;5119097;28;9632;-61
2022/07/20 04:10:59;;;;;;;;;7.80;7.80;;;;;21.99;36.22;99641.03;5118825;28;8812;-61
2022/07/20 04:13:27;;;;;;;;;11.00;11.00;;;;;22.08;35.84;99637.16;5118095;28;8870;-59
2022/07/20 04:15:55;;;;;;;;;8.40;7.80;;;;;22.14;36.21;99637.16;5116234;28;8804;-61
2022/07/20 04:18:23;;;;;;;;;12.00;10.20;;;;;22.23;36.08;99637.81;5117421;28;8828;-61
2022/07/20 04:20:51;;;;;;;;;12.40;10.40;;;;;22.34;35.41;99637.22;5117120;28;8808;-61
2022/07/20 04:23:19;;;;;;;;;8.00;8.00;;;;;22.44;35.49;99635.81;5117528;28;8947;-62
2022/07/20 04:25:46;;;;;;;;;12.00;11.00;;;;;22.55;35.37;99639.81;5117489;28;8828;-62
2022/07/20 04:28:15;;;;;;;;;9.00;8.40;;;;;22.63;35.39;99635.03;5118533;28;9599;-61
2022/07/20 04:30:42;;;;;;;;;10.20;9.80;;;;;22.73;35.02;99634.63;5128697;27;8857;-62
2022/07/20 04:33:10;;;;;;;;;11.60;11.00;;;;;22.83;34.98;99632.34;5137494;27;8838;-61
2022/07/20 04:35:38;;;;;;;;;9.20;8.80;;;;;22.94;34.87;99635.28;5138710;27;8841;-60
2022/07/20 04:38:06;;;;;;;;;9.00;9.00;;;;;23.11;34.94;99628.38;5138519;27;8825;-61
2022/07/20 04:40:34;;;;;;;;;10.20;8.80;;;;;23.26;34.97;99647.22;5139004;27;8917;-62
2022/07/20 04:43:03;;;;;;;;;9.40;8.40;;;;;23.39;34.33;99637.19;5138591;27;8846;-62
2022/07/20 04:45:31;;;;;;;;;8.80;8.80;;;;;23.52;34.28;99639.03;5138177;27;8860;-62
2022/07/20 04:47:58;;;;;;;;;9.00;9.00;;;;;23.66;34.15;99641.50;5118483;27;8812;-62
2022/07/20 04:50:26;;;;;;;;;11.60;9.60;;;;;23.82;34.27;99638.31;5117631;28;8904;-60
2022/07/20 04:52:54;;;;;;;;;8.00;6.60;;;;;24.05;34.05;99638.69;5117314;28;8832;-62
2022/07/20 04:55:22;;;;;;;;;8.80;7.80;;;;;24.29;33.56;99628.97;5117236;28;8847;-60
2022/07/20 04:57:50;;;;;;;;;8.80;8.80;;;;;24.48;33.81;99634.31;5117059;28;8847;-61
2022/07/20 05:00:18;;;;;;;;;6.20;6.00;;;;;24.67;33.22;99638.00;5117286;28;8867;-61
2022/07/20 05:02:45;;;;;;;;;6.60;6.60;;;;;24.81;32.96;99628.69;5117662;28;8950;-61
2022/07/20 05:05:14;;;;;;;;;9.80;9.00;;;;;24.95;33.36;99641.16;5117868;28;8824;-61
2022/07/20 05:07:45;;;;;;;;;7.80;7.80;;;;;25.10;32.70;99647.13;5117482;28;8831;-60
2022/07/20 05:10:13;;;;;;;;;8.80;8.80;;;;;25.22;32.31;99648.03;5116809;28;8837;-60
2022/07/20 05:12:40;;;;;;;;;7.60;7.60;;;;;25.32;32.77;99653.88;5117354;28;8858;-60
2022/07/20 05:15:08;;;;;;;;;10.00;9.20;;;;;25.44;32.85;99665.72;5117949;28;8844;-63
2022/07/20 05:17:36;;;;;;;;;9.40;9.40;;;;;25.52;32.45;99670.88;5122115;27;8832;-60
2022/07/20 05:20:04;;;;;;;;;9.60;9.60;;;;;25.57;32.51;99673.78;5116271;28;8832;-61
2022/07/20 05:22:32;;;;;;;;;7.80;7.80;;;;;25.63;32.70;99674.56;5116950;28;8824;-60
2022/07/20 05:25:00;;;;;;;;;11.00;8.40;;;;;25.74;32.16;99683.91;5117133;28;8836;-62
2022/07/20 05:27:28;;;;;;;;;7.40;7.40;;;;;25.87;32.17;99686.47;5117185;28;8954;-62
2022/07/20 05:29:56;;;;;;;;;10.00;7.80;;;;;26.04;31.90;99682.13;5114229;28;8854;-61
2022/07/20 05:32:24;;;;;;;;;7.20;7.00;;;;;26.21;31.85;99686.75;5097253;28;9534;-61
2022/07/20 05:34:51;;;;;;;;;9.00;8.00;;;;;26.38;31.97;99695.16;5096602;28;8826;-60
2022/07/20 05:37:19;;;;;;;;;7.60;7.20;;;;;26.50;31.63;99718.72;5096842;28;8847;-61
2022/07/20 05:39:47;;;;;;;;;8.00;7.20;;;;;26.61;31.85;99709.81;5096500;28;8978;-61
2022/07/20 05:42:15;;;;;;;;;9.60;9.60;;;;;26.73;31.43;99709.84;5095892;28;9876;-62
2022/07/20 05:44:43;;;;;;;;;7.80;7.20;;;;;26.86;31.06;99712.41;5094911;28;8822;-60
2022/07/20 05:47:11;;;;;;;;;11.40;11.40;;;;;26.97;31.01;99717.94;5095282;28;8864;-61
2022/07/20 05:49:39;;;;;;;;;9.60;9.60;;;;;27.08;31.02;99722.59;5094181;28;8848;-61
2022/07/20 05:52:07;;;;;;;;;9.00;8.00;;;;;27.20;31.06;99728.97;5094128;28;9634;-62
2022/07/20 05:54:35;;;;;;;;;8.80;8.00;;;;;27.32;30.82;99727.06;5094429;28;8849;-62
2022/07/20 05:57:03;;;;;;;;;10.80;9.00;;;;;27.44;30.87;99727.09;5094205;28;8845;-61
2022/07/20 05:59:38;;;;;;;;;10.20;9.80;;;;;27.57;30.79;99730.47;5095311;28;8876;-61
2022/07/20 06:02:06;;;;;;;;;10.20;9.20;;;;;27.69;30.69;99742.25;5096131;28;8834;-60
2022/07/20 06:04:34;;;;;;;;;7.80;7.20;;;;;27.83;30.65;99745.66;5095793;28;8838;-61
2022/07/20 06:07:03;;;;;;;;;14.00;9.00;;;;;27.96;30.84;99738.00;5095559;28;9674;-62
2022/07/20 06:09:31;;;;;;;;;8.60;7.40;;;;;28.10;30.39;99744.91;5095505;28;8972;-60
2022/07/20 06:11:59;;;;;;;;;8.40;8.40;;;;;28.26;30.17;99749.66;5095269;28;8822;-62
2022/07/20 06:14:27;;;;;;;;;8.80;8.20;;;;;28.45;29.77;99747.63;5094407;28;8822;-60
2022/07/20 06:16:55;;;;;;;;;4.20;4.00;;;;;28.69;29.44;99755.56;5095033;28;8964;-62
2022/07/20 06:19:23;;;;;;;;;8.80;7.80;;;;;28.94;29.41;99755.25;5095228;28;8997;-61
2022/07/20 06:21:51;;;;;;;;;8.60;8.00;;;;;29.16;29.22;99754.31;5093692;28;8833;-60
2022/07/20 06:24:20;;;;;;;;;7.00;6.20;;;;;29.37;29.28;99748.13;5094257;28;8826;-60
2022/07/20 06:26:47;;;;;;;;;8.60;8.00;;;;;29.56;29.19;99743.25;5093745;28;8972;-60
2022/07/20 06:29:15;;;;;;;;;9.00;8.80;;;;;29.74;29.02;99754.00;5093786;28;8829;-62
2022/07/20 06:31:43;;;;;;;;;9.20;9.00;;;;;29.91;28.66;99752.06;5093394;28;8838;-62
2022/07/20 06:34:37;;;;;;;;;8.40;8.40;;;;;30.10;28.85;99762.56;5093457;28;8863;-61
2022/07/20 06:37:05;;;;;;;;;10.40;9.60;;;;;30.22;28.13;99763.31;5094330;28;8837;-60
2022/07/20 06:39:33;;;;;;;;;10.00;9.60;;;;;30.26;28.53;99767.19;5094514;28;8980;-62
2022/07/20 06:42:01;;;;;;;;;8.60;8.60;;;;;30.31;28.37;99759.03;5094705;28;8976;-59
2022/07/20 06:44:29;;;;;;;;;9.40;9.00;;;;;30.41;28.61;99775.66;5093899;28;8956;-61
2022/07/20 06:46:57;;;;;;;;;11.60;10.20;;;;;30.57;28.12;99776.72;5106946;28;8868;-62
2022/07/20 06:49:25;;;;;;;;;8.40;8.40;;;;;30.73;27.90;99772.00;5115220;28;8847;-62
2022/07/20 06:51:54;;;;;;;;;8.40;7.40;;;;;30.90;28.01;99770.00;5115256;28;8823;-60
2022/07/20 06:54:21;;;;;;;;;9.20;8.00;;;;;31.06;27.86;99768.28;5115495;28;8835;-61
2022/07/20 06:56:49;;;;;;;;;9.20;9.00;;;;;31.18;27.44;99774.50;5114359;28;8827;-61
2022/07/20 06:59:17;;;;;;;;;9.60;9.00;;;;;31.26;27.58;99774.84;5114655;28;8990;-60
2022/07/20 07:01:45;;;;;;;;;10.00;10.00;;;;;31.37;27.50;99781.28;5114351;28;8832;-61
2022/07/20 07:04:13;;;;;;;;;9.40;8.20;;;;;31.47;27.35;99781.38;5113395;28;8844;-60
2022/07/20 07:06:41;;;;;;;;;8.20;7.80;;;;;31.52;27.44;99778.69;5112916;28;8845;-61
2022/07/20 07:09:09;;;;;;;;;7.00;6.80;;;;;31.57;27.49;99789.75;5112958;28;8859;-64
2022/07/20 07:11:36;;;;;;;;;8.80;8.40;;;;;31.60;27.62;99787.31;5113064;28;8844;-62
2022/07/20 07:14:04;;;;;;;;;9.00;8.00;;;;;31.67;27.64;99789.84;5113399;28;8820;-60
2022/07/20 07:16:33;;;;;;;;;7.80;7.00;;;;;31.74;27.26;99793.25;5101611;28;8829;-62
2022/07/20 07:19:00;;;;;;;;;10.80;10.60;;;;;31.77;27.17;99790.81;5092804;28;8826;-61
2022/07/20 07:21:28;;;;;;;;;11.20;9.60;;;;;31.81;27.14;99797.47;5093226;28;8846;-60
2022/07/20 07:23:56;;;;;;;;;11.80;11.00;;;;;31.86;26.73;99803.00;5093930;28;8984;-61
2022/07/20 07:26:24;;;;;;;;;8.20;6.80;;;;;31.88;27.44;99800.00;5094215;28;8856;-62
2022/07/20 07:28:52;;;;;;;;;6.60;6.00;;;;;31.94;27.01;99810.78;5093923;28;8826;-60
2022/07/20 07:31:25;;;;;;;;;9.00;8.20;;;;;31.95;27.38;99806.13;5094818;28;8878;-60
2022/07/20 07:33:53;;;;;;;;;11.00;10.40;;;;;31.95;27.46;99808.88;5094885;28;8850;-63
2022/07/20 07:36:22;;;;;;;;;10.20;9.20;;;;;31.95;27.19;99803.34;5094647;28;8833;-61
2022/07/20 07:38:50;;;;;;;;;10.60;9.40;;;;;31.96;27.32;99811.38;5093760;28;8837;-60
2022/07/20 07:41:19;;;;;;;;;9.60;9.60;;;;;31.98;27.24;99819.34;5094419;28;8842;-61
2022/07/20 07:43:46;;;;;;;;;9.00;8.80;;;;;32.00;27.33;99822.66;5095044;28;8880;-63
2022/07/20 07:46:14;;;;;;;;;12.20;10.00;;;;;31.99;27.13;99830.13;5095526;28;8940;-61
2022/07/20 07:48:43;;;;;;;;;8.60;8.60;;;;;32.03;27.15;99841.47;5094960;28;8837;-61
2022/07/20 07:51:10;;;;;;;;;11.80;10.80;;;;;32.04;26.95;99834.84;5094338;28;8976;-62
2022/07/20 07:53:38;;;;;;;;;8.80;8.80;;;;;32.06;27.34;99843.69;5094746;28;8876;-62
2022/07/20 07:56:06;;;;;;;;;8.00;8.00;;;;;31.99;27.10;99851.34;5094580;28;8834;-61
2022/07/20 07:58:36;;;;;;;;;14.20;13.80;;;;;31.87;27.65;99854.25;5094787;28;8834;-61
2022/07/20 08:01:04;;;;;;;;;13.40;13.40;;;;;31.71;28.08;99860.72;5095003;28;8980;-61
2022/07/20 08:03:32;;;;;;;;;16.00;15.20;;;;;31.56;28.40;99868.81;5094546;28;8854;-63
2022/07/20 08:06:00;;;;;;;;;16.00;16.00;;;;;31.41;28.24;99874.13;5095491;28;8840;-62
2022/07/20 08:08:28;;;;;;;;;16.40;16.40;;;;;31.26;28.73;99876.72;5096282;28;8830;-62
2022/07/20 08:10:56;;;;;;;;;23.20;21.40;;;;;31.14;29.07;99883.41;5097939;28;8818;-61
2022/07/20 08:13:24;;;;;;;;;20.60;18.60;;;;;31.02;29.07;99885.44;5097477;28;8985;-62
2022/07/20 08:15:52;;;;;;;;;23.00;21.60;;;;;30.93;29.67;99896.09;5097248;28;8834;-60
2022/07/20 08:18:20;;;;;;;;;24.60;23.60;;;;;30.83;29.60;99903.38;5097524;28;8849;-61
2022/07/20 08:20:48;;;;;;;;;27.20;26.00;;;;;30.76;30.17;99910.97;5097365;28;8846;-62
2022/07/20 08:23:15;;;;;;;;;26.20;24.60;;;;;30.72;30.12;99919.97;5097180;28;8950;-62
2022/07/20 08:25:43;;;;;;;;;32.60;29.60;;;;;30.67;30.40;99931.75;5097061;28;8846;-62
2022/07/20 08:28:12;;;;;;;;;27.40;26.00;;;;;30.58;30.17;99924.13;5098726;28;8832;-62
2022/07/20 08:30:40;;;;;;;;;30.00;28.00;;;;;30.54;30.36;99933.97;5097830;28;8982;-61
2022/07/20 08:33:20;;;;;;;;;27.60;27.20;;;;;30.51;31.21;99940.81;5097764;28;8822;-62
2022/07/20 08:35:48;;;;;;;;;31.40;30.00;;;;;30.46;31.27;99961.88;5098084;28;8931;-61
2022/07/20 08:38:16;;;;;;;;;29.80;26.60;;;;;30.39;31.59;99964.78;5096830;28;8825;-61
2022/07/20 08:40:44;;;;;;;;;33.00;30.80;;;;;30.34;31.39;99978.44;5096569;28;8850;-61
2022/07/20 08:43:13;;;;;;;;;29.60;24.80;;;;;30.27;31.67;99983.25;5096944;28;8844;-61
2022/07/20 08:45:41;;;;;;;;;34.40;32.80;;;;;30.26;31.82;99981.59;5096944;28;8949;-61
2022/07/20 08:48:11;;;;;;;;;38.60;34.20;;;;;30.25;32.25;99981.88;5097086;28;8856;-60
2022/07/20 08:50:38;;;;;;;;;34.60;33.40;;;;;30.23;32.30;99984.00;5096421;28;9507;-60
2022/07/20 08:53:07;;;;;;;;;39.20;35.00;;;;;30.24;33.02;99983.78;5096255;28;8822;-61
2022/07/20 08:55:34;;;;;;;;;37.00;34.40;;;;;30.30;33.02;99993.78;5096364;28;8842;-60
2022/07/20 08:58:03;;;;;;;;;40.60;35.40;;;;;30.35;32.66;99996.63;5096653;28;8957;-61
2022/07/20 09:00:30;;;;;;;;;33.40;33.00;;;;;30.42;32.99;99997.28;5096263;28;9012;-59
2022/07/20 09:03:01;;;;;;;;;43.60;36.00;;;;;30.54;32.80;99999.97;5096444;28;8872;-61
2022/07/20 09:05:29;;;;;;;;;37.60;35.20;;;;;30.57;32.74;99999.47;5096108;28;8861;-61
2022/07/20 09:08:00;;;;;;;;;37.80;34.80;;;;;30.55;33.41;99999.72;5096384;28;8880;-62
2022/07/20 09:10:31;;;;;;;;;38.60;33.80;;;;;30.54;32.94;100006.31;5096535;28;8848;-62
2022/07/20 09:12:58;;;;;;;;;33.00;31.60;;;;;30.64;33.33;100000.19;5096394;28;8842;-61
2022/07/20 09:15:27;;;;;;;;;44.60;38.60;;;;;30.75;33.13;99998.16;5096801;28;8834;-61
2022/07/20 09:17:55;;;;;;;;;41.00;35.20;;;;;30.82;33.15;99995.25;5096264;28;8852;-61
2022/07/20 09:20:25;;;;;;;;;41.80;37.40;;;;;30.87;33.15;99985.16;5095747;28;8968;-61
2022/07/20 09:22:53;;;;;;;;;40.80;36.40;;;;;30.93;32.67;99975.88;5096323;28;8923;-60
2022/07/20 09:25:22;;;;;;;;;39.60;35.80;;;;;31.09;32.60;99982.44;5095881;28;8838;-60
2022/07/20 09:27:50;;;;;;;;;32.20;28.00;;;;;31.18;32.60;99975.47;5102172;28;8847;-60
2022/07/20 09:30:17;;;;;;;;;43.40;36.60;;;;;31.36;32.46;99977.91;5122852;27;8980;-60
2022/07/20 09:32:46;;;;;;;;;44.20;37.60;;;;;31.44;32.79;99977.44;5136747;27;8848;-60
2022/07/20 09:35:13;;;;;;;;;43.60;38.00;;;;;31.43;32.43;99979.34;5135590;27;8929;-58
2022/07/20 09:37:42;;;;;;;;;45.20;38.80;;;;;31.45;32.74;99979.97;5135528;27;8845;-58
2022/07/20 09:40:10;;;;;;;;;42.20;36.80;;;;;31.53;32.50;99978.66;5135861;27;8829;-59
2022/07/20 09:42:37;;;;;;;;;45.20;38.40;;;;;31.63;32.32;99962.28;5135804;27;8972;-66
2022/07/20 09:45:05;;;;;;;;;41.20;35.80;;;;;31.80;31.94;99947.34;5135049;27;8841;-60
2022/07/20 09:47:53;;;;;;;;;38.00;34.40;;;;;32.00;31.73;99949.47;5134934;27;8930;-60
2022/07/20 09:50:21;;;;;;;;;44.20;36.60;;;;;32.18;31.37;99947.16;5135751;27;8863;-60
2022/07/20 09:52:49;;;;;;;;;34.60;31.80;;;;;32.33;31.06;99952.03;5135666;27;8822;-60
2022/07/20 09:55:17;;;;;;;;;43.20;37.80;;;;;32.47;31.10;99964.31;5134984;27;8834;-58
2022/07/20 09:57:45;;;;;;;;;40.60;35.80;;;;;32.74;30.45;99962.31;5132631;27;8837;-58
2022/07/20 10:00:13;;;;;;;;;41.40;35.40;;;;;33.03;30.54;99963.63;5135524;27;8860;-59
2022/07/20 10:02:41;;;;;;;;;42.80;37.00;;;;;33.32;30.33;99954.72;5135469;27;8826;-60
2022/07/20 10:05:08;;;;;;;;;39.80;35.40;;;;;33.61;29.72;99953.16;5135052;27;8830;-58
2022/07/20 10:07:38;;;;;;;;;19.20;18.20;;;;;33.96;29.85;99952.47;5135255;27;8825;-58
2022/07/20 10:10:05;;;;;;;;;42.20;36.20;;;;;34.20;29.62;99948.09;5135432;27;8826;-59
2022/07/20 10:12:33;;;;;;;;;36.40;32.60;;;;;34.49;28.87;99952.03;5136605;27;8834;-60
2022/07/20 10:15:02;;;;;;;;;41.60;34.40;;;;;34.76;28.54;99947.03;5136150;27;8851;-60
2022/07/20 10:17:31;;;;;;;;;39.40;34.20;;;;;35.07;28.79;99943.09;5136061;27;8826;-60
2022/07/20 10:19:58;;;;;;;;;41.00;35.60;;;;;35.44;28.63;99941.63;5135871;27;8830;-59
2022/07/20 10:22:26;;;;;;;;;39.00;34.80;;;;;35.92;27.62;99951.13;5135679;27;8865;-59
2022/07/20 10:24:54;;;;;;;;;39.00;33.80;;;;;36.24;27.36;99946.75;5136443;27;8841;-59
2022/07/20 10:27:22;;;;;;;;;39.20;33.60;;;;;36.51;27.33;99945.13;5134299;27;8830;-58
2022/07/20 10:29:50;;;;;;;;;36.00;32.40;;;;;36.77;27.01;99942.97;5134556;27;8908;-59
2022/07/20 10:32:20;;;;;;;;;43.80;35.00;;;;;36.94;26.62;99946.97;5134910;27;8960;-59
2022/07/20 10:34:48;;;;;;;;;40.20;33.40;;;;;37.09;27.09;99951.59;5135449;27;8887;-60
2022/07/20 10:37:16;;;;;;;;;35.40;31.20;;;;;37.33;26.89;99958.78;5135303;27;8980;-60
2022/07/20 10:39:47;;;;;;;;;38.20;32.40;;;;;37.65;25.98;99961.78;5134929;27;8838;-58
2022/07/20 10:42:14;;;;;;;;;32.20;29.40;;;;;38.02;26.39;99972.13;5135110;27;9526;-61
2022/07/20 10:44:42;;;;;;;;;39.00;34.80;;;;;38.26;25.94;99964.53;5134878;27;8841;-60
2022/07/20 10:47:11;;;;;;;;;37.20;33.20;;;;;38.45;26.11;99968.16;5134477;27;8825;-59
2022/07/20 10:49:39;;;;;;;;;38.40;34.00;;;;;38.66;25.86;99972.25;5133923;27;8821;-60
2022/07/20 10:52:07;;;;;;;;;33.40;29.40;;;;;38.86;25.38;99975.56;5133144;27;8826;-57
2022/07/20 10:54:34;;;;;;;;;33.40;30.80;;;;;39.08;24.92;99969.28;5134067;27;9617;-60
2022/07/20 10:57:03;;;;;;;;;33.80;30.80;;;;;39.21;24.95;99968.47;5132448;27;8829;-59
2022/07/20 10:59:30;;;;;;;;;34.40;30.60;;;;;39.23;24.90;99977.34;5114298;28;8860;-59
2022/07/20 11:01:58;;;;;;;;;38.40;34.00;;;;;39.38;25.07;99980.72;5114325;28;8849;-58
2022/07/20 11:04:26;;;;;;;;;34.40;31.20;;;;;39.50;24.52;99978.22;5113663;28;8859;-60
2022/07/20 11:06:54;;;;;;;;;34.20;30.40;;;;;39.42;25.25;99976.16;5113109;28;8971;-60
2022/07/20 11:09:22;;;;;;;;;35.80;32.20;;;;;39.38;24.73;99975.16;5112817;28;8854;-61
2022/07/20 11:11:50;;;;;;;;;35.60;31.40;;;;;39.52;24.90;99967.56;5112625;28;8839;-58
2022/07/20 11:14:18;;;;;;;;;32.80;30.00;;;;;39.80;24.54;99966.44;5112408;28;8873;-60
2022/07/20 11:16:47;;;;;;;;;31.00;29.80;;;;;40.03;24.11;99965.34;5111896;28;8979;-61
2022/07/20 11:19:15;;;;;;;;;35.40;31.20;;;;;40.23;23.68;99961.28;5112297;28;8893;-61
2022/07/20 11:21:43;;;;;;;;;34.40;31.00;;;;;40.46;24.35;99957.38;5111829;28;8843;-61
2022/07/20 11:24:11;;;;;;;;;35.00;31.80;;;;;40.64;23.76;99959.19;5112928;28;8860;-59
2022/07/20 11:26:39;;;;;;;;;34.20;31.00;;;;;40.71;23.75;99957.59;5112611;28;9532;-60
2022/07/20 11:29:14;;;;;;;;;28.60;27.20;;;;;40.85;23.78;99955.53;5128670;27;9455;-59
2022/07/20 11:31:41;;;;;;;;;33.00;30.60;;;;;40.93;23.51;99957.59;5117675;28;9521;-59
2022/07/20 11:34:09;;;;;;;;;33.20;30.60;;;;;40.99;24.09;99947.09;5111852;28;8970;-59
2022/07/20 11:36:37;;;;;;;;;28.40;26.80;;;;;41.07;23.61;99954.69;5113175;28;8901;-61